CKS379 KYIP-KCVG
Flight info
| Callsign | CKS379 |
|---|---|
| Flight time | 0h 44m |
| Altitude | 31000 |
| Route | CLVIN3 CLVIN UKATS TIGRR4 |
| Aircraft | B77L/H-SDE1E2E3FGHIJ2J3J4J5M1RWXY/LB1D1 |
Departure
| Time | 2026-05-05 03:58 |
|---|---|
| Airport | Willow Run Airport (KYIP) |
Arrival
| Time | 2026-05-05 04:43 |
|---|---|
| Airport | Cincinnati Northern Kentucky International Airport (KCVG) |
| Time | Latitude | Longitude | Altitude | Speed | Heading |
|---|---|---|---|---|---|
| 2026-05-05 03:41 | 42.22733 | -83.53655 | 730 ft | 0 kts | 71° |
| 2026-05-05 03:52 | 42.22735 | -83.53646 | 729 ft | 6 kts | 71° |
| 2026-05-05 03:52 | 42.22750 | -83.53583 | 731 ft | 8 kts | 43° |
| 2026-05-05 03:53 | 42.22811 | -83.53624 | 731 ft | 12 kts | 295° |
| 2026-05-05 03:53 | 42.22860 | -83.53724 | 728 ft | 15 kts | 312° |
| 2026-05-05 03:53 | 42.22969 | -83.53787 | 728 ft | 22 kts | 22° |
| 2026-05-05 03:53 | 42.23081 | -83.53602 | 726 ft | 29 kts | 75° |
| 2026-05-05 03:54 | 42.23095 | -83.53301 | 728 ft | 35 kts | 88° |
| 2026-05-05 03:54 | 42.23101 | -83.52948 | 727 ft | 40 kts | 89° |
| 2026-05-05 03:54 | 42.23104 | -83.52574 | 725 ft | 39 kts | 88° |
| 2026-05-05 03:54 | 42.23120 | -83.52214 | 723 ft | 37 kts | 88° |
| 2026-05-05 03:55 | 42.23124 | -83.51875 | 720 ft | 35 kts | 90° |
| 2026-05-05 03:55 | 42.23130 | -83.51639 | 718 ft | 24 kts | 71° |
| 2026-05-05 03:55 | 42.23269 | -83.51532 | 719 ft | 24 kts | 19° |
| 2026-05-05 03:55 | 42.23438 | -83.51512 | 720 ft | 25 kts | 356° |
| 2026-05-05 03:56 | 42.23614 | -83.51525 | 722 ft | 25 kts | 356° |
| 2026-05-05 03:56 | 42.23790 | -83.51532 | 720 ft | 25 kts | 359° |
| 2026-05-05 03:56 | 42.23966 | -83.51534 | 721 ft | 25 kts | 359° |
| 2026-05-05 03:56 | 42.24063 | -83.51691 | 720 ft | 27 kts | 268° |
| 2026-05-05 03:57 | 42.24123 | -83.51928 | 724 ft | 31 kts | 314° |
| 2026-05-05 03:57 | 42.24263 | -83.52102 | 726 ft | 19 kts | 317° |
| 2026-05-05 03:57 | 42.24293 | -83.52218 | 722 ft | 9 kts | 246° |
| 2026-05-05 03:57 | 42.24284 | -83.52232 | 727 ft | 0 kts | 226° |
| 2026-05-05 03:58 | 42.24082 | -83.52520 | 727 ft | 89 kts | 226° |
| 2026-05-05 03:58 | 42.23452 | -83.53404 | 734 ft | 168 kts | 222° |
| 2026-05-05 03:58 | 42.22550 | -83.54593 | 1299 ft | 187 kts | 223° |
| 2026-05-05 03:58 | 42.21631 | -83.55839 | 2311 ft | 187 kts | 226° |
| 2026-05-05 03:59 | 42.20630 | -83.57042 | 3084 ft | 198 kts | 224° |
| 2026-05-05 03:59 | 42.19461 | -83.58145 | 3712 ft | 216 kts | 210° |
| 2026-05-05 03:59 | 42.17924 | -83.58521 | 4396 ft | 240 kts | 183° |
| 2026-05-05 03:59 | 42.16246 | -83.58038 | 5116 ft | 252 kts | 171° |
| 2026-05-05 04:00 | 42.14538 | -83.57394 | 5978 ft | 255 kts | 170° |
| 2026-05-05 04:00 | 42.12819 | -83.56744 | 6830 ft | 259 kts | 170° |
| 2026-05-05 04:00 | 42.11080 | -83.56085 | 7673 ft | 261 kts | 170° |
| 2026-05-05 04:00 | 42.09312 | -83.55417 | 8468 ft | 267 kts | 169° |
| 2026-05-05 04:01 | 42.07512 | -83.54741 | 9294 ft | 271 kts | 169° |
| 2026-05-05 04:01 | 42.05684 | -83.54060 | 10075 ft | 274 kts | 170° |
| 2026-05-05 04:01 | 42.03841 | -83.53376 | 10867 ft | 276 kts | 170° |
| 2026-05-05 04:01 | 42.01991 | -83.52689 | 11670 ft | 277 kts | 170° |
| 2026-05-05 04:02 | 42.00119 | -83.51994 | 12460 ft | 280 kts | 171° |
| 2026-05-05 04:02 | 41.98256 | -83.51304 | 13226 ft | 283 kts | 171° |
| 2026-05-05 04:02 | 41.96349 | -83.50597 | 13927 ft | 286 kts | 171° |
| 2026-05-05 04:02 | 41.94423 | -83.49884 | 14628 ft | 288 kts | 171° |
| 2026-05-05 04:03 | 41.92482 | -83.49165 | 15338 ft | 291 kts | 171° |
| 2026-05-05 04:03 | 41.90520 | -83.48439 | 16024 ft | 294 kts | 171° |
| 2026-05-05 04:03 | 41.88539 | -83.47707 | 16711 ft | 297 kts | 172° |
| 2026-05-05 04:03 | 41.86540 | -83.46967 | 17408 ft | 300 kts | 172° |
| 2026-05-05 04:04 | 41.84520 | -83.46221 | 18083 ft | 302 kts | 172° |
| 2026-05-05 04:04 | 41.82481 | -83.45468 | 18656 ft | 306 kts | 172° |
| 2026-05-05 04:04 | 41.80416 | -83.44706 | 19232 ft | 310 kts | 172° |
| 2026-05-05 04:04 | 41.78325 | -83.43934 | 19776 ft | 314 kts | 171° |
| 2026-05-05 04:05 | 41.76206 | -83.43154 | 20317 ft | 318 kts | 171° |
| 2026-05-05 04:05 | 41.74062 | -83.42365 | 20899 ft | 321 kts | 171° |
| 2026-05-05 04:05 | 41.71888 | -83.41746 | 21417 ft | 318 kts | 182° |
| 2026-05-05 04:05 | 41.69689 | -83.41850 | 21939 ft | 315 kts | 195° |
| 2026-05-05 04:06 | 41.67583 | -83.42582 | 22437 ft | 315 kts | 204° |
| 2026-05-05 04:06 | 41.65461 | -83.43560 | 22617 ft | 332 kts | 204° |
| 2026-05-05 04:06 | 41.63229 | -83.44618 | 22775 ft | 349 kts | 204° |
| 2026-05-05 04:06 | 41.60877 | -83.45725 | 22907 ft | 367 kts | 204° |
| 2026-05-05 04:07 | 41.58399 | -83.46873 | 23047 ft | 385 kts | 203° |
| 2026-05-05 04:07 | 41.55809 | -83.48058 | 23171 ft | 402 kts | 202° |
| 2026-05-05 04:07 | 41.53102 | -83.49284 | 23292 ft | 419 kts | 202° |
| 2026-05-05 04:07 | 41.50300 | -83.50547 | 23554 ft | 430 kts | 202° |
| 2026-05-05 04:08 | 41.47440 | -83.51834 | 23956 ft | 437 kts | 202° |
| 2026-05-05 04:08 | 41.44550 | -83.53135 | 24501 ft | 439 kts | 202° |
| 2026-05-05 04:08 | 41.41583 | -83.54117 | 25018 ft | 446 kts | 189° |
| 2026-05-05 04:08 | 41.38458 | -83.53949 | 25629 ft | 455 kts | 175° |
| 2026-05-05 04:09 | 41.35385 | -83.52782 | 25667 ft | 466 kts | 158° |
| 2026-05-05 04:09 | 41.32587 | -83.50658 | 25723 ft | 463 kts | 153° |
| 2026-05-05 04:09 | 41.29823 | -83.48457 | 25702 ft | 462 kts | 153° |
| 2026-05-05 04:09 | 41.27088 | -83.46315 | 25716 ft | 462 kts | 154° |
| 2026-05-05 04:10 | 41.24312 | -83.44173 | 25720 ft | 461 kts | 154° |
| 2026-05-05 04:10 | 41.21530 | -83.42050 | 25734 ft | 461 kts | 154° |
| 2026-05-05 04:10 | 41.18741 | -83.39936 | 25719 ft | 461 kts | 154° |
| 2026-05-05 04:10 | 41.15948 | -83.37829 | 25734 ft | 461 kts | 154° |
| 2026-05-05 04:11 | 41.13159 | -83.35730 | 25718 ft | 461 kts | 154° |
| 2026-05-05 04:11 | 41.10367 | -83.33632 | 25723 ft | 461 kts | 154° |
| 2026-05-05 04:11 | 41.07571 | -83.31532 | 25727 ft | 462 kts | 154° |
| 2026-05-05 04:11 | 41.04777 | -83.29435 | 25733 ft | 462 kts | 154° |
| 2026-05-05 04:12 | 41.01979 | -83.27337 | 25745 ft | 462 kts | 154° |
| 2026-05-05 04:12 | 40.99176 | -83.25236 | 25738 ft | 463 kts | 154° |
| 2026-05-05 04:12 | 40.96374 | -83.23139 | 25746 ft | 463 kts | 154° |
| 2026-05-05 04:12 | 40.93572 | -83.21043 | 25749 ft | 463 kts | 154° |
| 2026-05-05 04:13 | 40.90764 | -83.18945 | 25728 ft | 463 kts | 154° |
| 2026-05-05 04:13 | 40.87958 | -83.16850 | 25738 ft | 463 kts | 154° |
| 2026-05-05 04:13 | 40.85150 | -83.14757 | 25750 ft | 463 kts | 154° |
| 2026-05-05 04:13 | 40.82344 | -83.12666 | 25755 ft | 463 kts | 154° |
| 2026-05-05 04:14 | 40.79533 | -83.10573 | 25753 ft | 463 kts | 154° |
| 2026-05-05 04:14 | 40.76723 | -83.08484 | 25768 ft | 463 kts | 154° |
| 2026-05-05 04:14 | 40.73924 | -83.06404 | 25774 ft | 462 kts | 154° |
| 2026-05-05 04:14 | 40.71121 | -83.04323 | 25777 ft | 462 kts | 154° |
| 2026-05-05 04:15 | 40.68321 | -83.02248 | 25756 ft | 461 kts | 154° |
| 2026-05-05 04:15 | 40.65526 | -83.00177 | 25768 ft | 461 kts | 154° |
| 2026-05-05 04:15 | 40.62732 | -82.98110 | 25774 ft | 460 kts | 154° |
| 2026-05-05 04:15 | 40.59944 | -82.96049 | 25778 ft | 460 kts | 154° |
| 2026-05-05 04:16 | 40.57154 | -82.93989 | 25779 ft | 460 kts | 154° |
| 2026-05-05 04:16 | 40.54363 | -82.91930 | 25776 ft | 460 kts | 154° |
| 2026-05-05 04:16 | 40.51573 | -82.89873 | 25775 ft | 460 kts | 154° |
| 2026-05-05 04:16 | 40.48778 | -82.87815 | 25773 ft | 460 kts | 154° |
| 2026-05-05 04:17 | 40.45984 | -82.85759 | 25770 ft | 460 kts | 154° |
| 2026-05-05 04:17 | 40.43226 | -82.83732 | 25774 ft | 460 kts | 154° |
| 2026-05-05 04:17 | 40.40433 | -82.81681 | 25780 ft | 461 kts | 154° |
| 2026-05-05 04:17 | 40.37638 | -82.79631 | 25780 ft | 461 kts | 154° |
| 2026-05-05 04:18 | 40.34837 | -82.77578 | 25772 ft | 461 kts | 154° |
| 2026-05-05 04:18 | 40.32042 | -82.75532 | 25779 ft | 460 kts | 154° |
| 2026-05-05 04:18 | 40.29242 | -82.73482 | 25780 ft | 460 kts | 154° |
| 2026-05-05 04:18 | 40.26443 | -82.71435 | 25778 ft | 460 kts | 154° |
| 2026-05-05 04:19 | 40.23651 | -82.69396 | 25767 ft | 460 kts | 154° |
| 2026-05-05 04:19 | 40.20781 | -82.67674 | 25771 ft | 451 kts | 167° |
| 2026-05-05 04:19 | 40.17703 | -82.67163 | 25788 ft | 444 kts | 186° |
| 2026-05-05 04:19 | 40.14700 | -82.67952 | 25792 ft | 440 kts | 203° |
| 2026-05-05 04:20 | 40.12000 | -82.69786 | 25798 ft | 438 kts | 216° |
| 2026-05-05 04:20 | 40.09619 | -82.72261 | 25797 ft | 437 kts | 226° |
| 2026-05-05 04:20 | 40.07761 | -82.75362 | 25783 ft | 431 kts | 241° |
| 2026-05-05 04:20 | 40.06347 | -82.78828 | 25825 ft | 433 kts | 243° |
| 2026-05-05 04:21 | 40.04963 | -82.82316 | 25823 ft | 434 kts | 243° |
| 2026-05-05 04:21 | 40.03570 | -82.85818 | 25819 ft | 434 kts | 243° |
| 2026-05-05 04:21 | 40.02181 | -82.89265 | 25802 ft | 434 kts | 243° |
| 2026-05-05 04:21 | 40.00764 | -82.92739 | 25806 ft | 434 kts | 243° |
| 2026-05-05 04:22 | 39.99319 | -82.96245 | 25812 ft | 433 kts | 243° |
| 2026-05-05 04:22 | 39.97886 | -82.99697 | 25815 ft | 432 kts | 243° |
| 2026-05-05 04:22 | 39.96452 | -83.03137 | 25824 ft | 432 kts | 243° |
| 2026-05-05 04:22 | 39.95035 | -83.06527 | 25820 ft | 431 kts | 243° |
| 2026-05-05 04:23 | 39.93602 | -83.09953 | 25823 ft | 430 kts | 243° |
| 2026-05-05 04:23 | 39.92168 | -83.13377 | 25820 ft | 430 kts | 243° |
| 2026-05-05 04:23 | 39.90734 | -83.16795 | 25829 ft | 429 kts | 243° |
| 2026-05-05 04:23 | 39.89304 | -83.20202 | 25825 ft | 429 kts | 243° |
| 2026-05-05 04:24 | 39.87871 | -83.23615 | 25820 ft | 428 kts | 243° |
| 2026-05-05 04:24 | 39.86442 | -83.27013 | 25820 ft | 428 kts | 243° |
| 2026-05-05 04:24 | 39.85011 | -83.30413 | 25814 ft | 426 kts | 243° |
| 2026-05-05 04:25 | 39.82240 | -83.36979 | 25703 ft | 404 kts | 243° |
| 2026-05-05 04:25 | 39.80890 | -83.40176 | 25237 ft | 402 kts | 243° |
| 2026-05-05 04:25 | 39.79547 | -83.43354 | 24770 ft | 399 kts | 243° |
| 2026-05-05 04:25 | 39.78214 | -83.46506 | 24300 ft | 396 kts | 243° |
| 2026-05-05 04:26 | 39.76888 | -83.49638 | 23820 ft | 394 kts | 243° |
| 2026-05-05 04:26 | 39.75567 | -83.52753 | 23290 ft | 393 kts | 242° |
| 2026-05-05 04:26 | 39.74251 | -83.55855 | 22740 ft | 391 kts | 242° |
| 2026-05-05 04:26 | 39.72943 | -83.58934 | 22204 ft | 388 kts | 242° |
| 2026-05-05 04:27 | 39.71643 | -83.61991 | 21706 ft | 385 kts | 242° |
| 2026-05-05 04:27 | 39.70353 | -83.65022 | 21230 ft | 382 kts | 242° |
| 2026-05-05 04:27 | 39.69073 | -83.68026 | 20750 ft | 379 kts | 242° |
| 2026-05-05 04:27 | 39.67804 | -83.71001 | 20284 ft | 376 kts | 242° |
| 2026-05-05 04:28 | 39.66557 | -83.73922 | 19825 ft | 373 kts | 242° |
| 2026-05-05 04:28 | 39.65302 | -83.76859 | 19364 ft | 371 kts | 242° |
| 2026-05-05 04:28 | 39.64054 | -83.79778 | 18902 ft | 368 kts | 242° |
| 2026-05-05 04:28 | 39.62814 | -83.82678 | 18433 ft | 366 kts | 242° |
| 2026-05-05 04:29 | 39.61980 | -83.84624 | 18122 ft | 364 kts | 242° |
| 2026-05-05 04:29 | 39.60751 | -83.87488 | 17611 ft | 362 kts | 242° |
| 2026-05-05 04:29 | 39.59463 | -83.90273 | 17115 ft | 359 kts | 237° |
| 2026-05-05 04:29 | 39.57990 | -83.92830 | 16667 ft | 358 kts | 232° |
| 2026-05-05 04:30 | 39.56320 | -83.95210 | 16210 ft | 355 kts | 229° |
| 2026-05-05 04:30 | 39.54639 | -83.97530 | 15756 ft | 352 kts | 229° |
| 2026-05-05 04:30 | 39.52975 | -83.99836 | 15311 ft | 349 kts | 230° |
| 2026-05-05 04:30 | 39.51333 | -84.02118 | 14970 ft | 343 kts | 229° |
| 2026-05-05 04:31 | 39.49721 | -84.04363 | 14618 ft | 338 kts | 230° |
| 2026-05-05 04:31 | 39.48128 | -84.06582 | 14205 ft | 335 kts | 230° |
| 2026-05-05 04:31 | 39.46543 | -84.08784 | 13777 ft | 333 kts | 229° |
| 2026-05-05 04:31 | 39.44955 | -84.10968 | 13325 ft | 333 kts | 229° |
| 2026-05-05 04:32 | 39.43372 | -84.13139 | 12870 ft | 331 kts | 229° |
| 2026-05-05 04:32 | 39.41798 | -84.15297 | 12421 ft | 329 kts | 229° |
| 2026-05-05 04:32 | 39.40237 | -84.17437 | 11989 ft | 326 kts | 229° |
| 2026-05-05 04:32 | 39.38705 | -84.19584 | 11563 ft | 323 kts | 231° |
| 2026-05-05 04:33 | 39.37258 | -84.21800 | 11144 ft | 321 kts | 232° |
| 2026-05-05 04:33 | 39.35972 | -84.24092 | 10759 ft | 311 kts | 243° |
| 2026-05-05 04:33 | 39.35261 | -84.26687 | 10389 ft | 300 kts | 257° |
| 2026-05-05 04:33 | 39.34909 | -84.29252 | 9970 ft | 280 kts | 259° |
| 2026-05-05 04:34 | 39.34590 | -84.31616 | 9721 ft | 256 kts | 259° |
| 2026-05-05 04:34 | 39.34282 | -84.33871 | 9290 ft | 254 kts | 259° |
| 2026-05-05 04:34 | 39.33978 | -84.36084 | 9098 ft | 243 kts | 259° |
| 2026-05-05 04:34 | 39.33681 | -84.38225 | 8696 ft | 242 kts | 258° |
| 2026-05-05 04:35 | 39.33387 | -84.40341 | 8365 ft | 237 kts | 258° |
| 2026-05-05 04:35 | 39.33096 | -84.42421 | 8021 ft | 233 kts | 257° |
| 2026-05-05 04:35 | 39.32573 | -84.44358 | 7701 ft | 228 kts | 243° |
| 2026-05-05 04:35 | 39.31790 | -84.46146 | 7417 ft | 230 kts | 240° |
| 2026-05-05 04:36 | 39.30985 | -84.47903 | 7188 ft | 229 kts | 240° |
| 2026-05-05 04:36 | 39.30171 | -84.49698 | 6953 ft | 224 kts | 240° |
| 2026-05-05 04:36 | 39.29418 | -84.51383 | 6576 ft | 218 kts | 240° |
| 2026-05-05 04:36 | 39.28652 | -84.53107 | 6300 ft | 224 kts | 240° |
| 2026-05-05 04:37 | 39.27889 | -84.54831 | 6016 ft | 219 kts | 240° |
| 2026-05-05 04:37 | 39.27139 | -84.56527 | 5712 ft | 219 kts | 240° |
| 2026-05-05 04:37 | 39.26386 | -84.58255 | 5525 ft | 219 kts | 241° |
| 2026-05-05 04:37 | 39.25654 | -84.59975 | 5144 ft | 217 kts | 241° |
| 2026-05-05 04:38 | 39.24929 | -84.61682 | 4897 ft | 217 kts | 241° |
| 2026-05-05 04:38 | 39.24209 | -84.63375 | 4582 ft | 214 kts | 241° |
| 2026-05-05 04:38 | 39.23497 | -84.65045 | 4261 ft | 209 kts | 239° |
| 2026-05-05 04:38 | 39.22508 | -84.66334 | 3934 ft | 205 kts | 210° |
| 2026-05-05 04:39 | 39.21127 | -84.66758 | 3705 ft | 203 kts | 193° |
| 2026-05-05 04:39 | 39.19725 | -84.66821 | 3465 ft | 195 kts | 190° |
| 2026-05-05 04:39 | 39.18446 | -84.66818 | 3189 ft | 173 kts | 192° |
| 2026-05-05 04:39 | 39.17282 | -84.66814 | 3000 ft | 164 kts | 192° |
| 2026-05-05 04:40 | 39.16166 | -84.66818 | 2752 ft | 156 kts | 194° |
| 2026-05-05 04:40 | 39.15120 | -84.66827 | 2594 ft | 150 kts | 191° |
| 2026-05-05 04:40 | 39.14083 | -84.66827 | 2377 ft | 145 kts | 191° |
| 2026-05-05 04:40 | 39.13121 | -84.66829 | 2181 ft | 132 kts | 191° |
| 2026-05-05 04:41 | 39.12216 | -84.66841 | 2035 ft | 134 kts | 192° |
| 2026-05-05 04:41 | 39.11371 | -84.66887 | 1812 ft | 118 kts | 188° |
| 2026-05-05 04:41 | 39.10423 | -84.66805 | 1737 ft | 142 kts | 184° |
| 2026-05-05 04:41 | 39.09468 | -84.66751 | 1712 ft | 132 kts | 182° |
| 2026-05-05 04:42 | 39.08537 | -84.66774 | 1418 ft | 136 kts | 186° |
| 2026-05-05 04:42 | 39.07588 | -84.66832 | 1191 ft | 139 kts | 184° |
| 2026-05-05 04:42 | 39.06619 | -84.66846 | 980 ft | 137 kts | 182° |
| 2026-05-05 04:42 | 39.05723 | -84.66859 | 876 ft | 107 kts | 181° |
| 2026-05-05 04:43 | 39.05283 | -84.66863 | 875 ft | 53 kts | 180° |
| 2026-05-05 04:43 | 39.05036 | -84.66810 | 880 ft | 15 kts | 128° |
| 2026-05-05 04:43 | 39.04890 | -84.66722 | 882 ft | 34 kts | 180° |
| 2026-05-05 04:43 | 39.04665 | -84.66723 | 883 ft | 14 kts | 180° |
| 2026-05-05 04:44 | 39.04408 | -84.66728 | 881 ft | 50 kts | 181° |
| 2026-05-05 04:44 | 39.04064 | -84.66732 | 876 ft | 47 kts | 180° |
| 2026-05-05 04:44 | 39.03780 | -84.66734 | 878 ft | 23 kts | 180° |
| 2026-05-05 04:44 | 39.03635 | -84.66730 | 884 ft | 13 kts | 166° |
| 2026-05-05 04:45 | 39.03593 | -84.66576 | 880 ft | 32 kts | 92° |
| 2026-05-05 04:45 | 39.03589 | -84.66175 | 872 ft | 56 kts | 93° |
| 2026-05-05 04:45 | 39.03577 | -84.65752 | 874 ft | 36 kts | 90° |
| 2026-05-05 04:45 | 39.03589 | -84.65500 | 891 ft | 21 kts | 84° |
| 2026-05-05 04:46 | 39.03581 | -84.65316 | 892 ft | 21 kts | 126° |
| 2026-05-05 04:46 | 39.03467 | -84.65306 | 892 ft | 0 kts | 183° |